Wayana — PE5639 — position and weather

sailwx.info

Track history (hours):
 
Tides and Currents Weather Stations Pressure Air Temp Water Temp Dewpoint Dewpoint Depression Visibility Wind Speed Wind Dir Waves Ship Positions

Wayana

Last reported at 2016-Jun-17 10:31 UTC. Time now 2016-Jun-24 22:21 UTC.
Position N 59°49' E 005°33'.

Length 14 m.

Type: Sailing vessel. MMSI: 244020670.

Date/timePositionNaut miles runAvg speedWind from/ knotsBaromVisibWave heightAir tempDewpointWater temp
2016-Jun-17 10:31N 59°49' E 005°33'5 5.5
2016-Jun-17 09:33N 59°44' E 005°29'6 6.2
2016-Jun-17 08:32N 59°40' E 005°20'7 0.2
2016-Jun-15 16:22N 59°35' E 005°09'0 0.0
2016-Jun-15 15:31N 59°35' E 005°09'0 0.0
2016-Jun-15 14:31N 59°35' E 005°09'0 0.3
2016-Jun-15 13:33N 59°35' E 005°09'6 5.9
2016-Jun-15 12:33N 59°30' E 005°12'5 5.1
2016-Jun-15 11:33N 59°25' E 005°16'9 0.6
2016-Jun-14 21:06N 59°18' E 005°28'0 0.0
2016-Jun-14 20:30N 59°18' E 005°28'0 0.0
2016-Jun-14 19:33N 59°18' E 005°28'0 0.0
2016-Jun-14 18:33N 59°18' E 005°28'0 0.0
2016-Jun-14 17:32N 59°18' E 005°28'0 0.0
2016-Jun-14 16:23N 59°18' E 005°28'0 0.0
2016-Jun-14 11:20N 59°18' E 005°28'0 0.0
2016-Jun-14 10:28N 59°18' E 005°28'0 0.0
2016-Jun-14 09:31N 59°18' E 005°28'0 0.0
2016-Jun-14 08:34N 59°18' E 005°28'0 0.0
2016-Jun-14 07:33N 59°18' E 005°28'0 0.0
2016-Jun-14 05:33N 59°18' E 005°28'0 0.0
2016-Jun-14 04:33N 59°18' E 005°28'0 0.0
2016-Jun-14 03:30N 59°18' E 005°28'0 0.0
2016-Jun-14 02:33N 59°18' E 005°28'0 0.0
2016-Jun-14 01:30N 59°18' E 005°28'3 0.2
2016-Jun-13 12:11N 59°15' E 005°27'4 5.0
2016-Jun-13 11:30N 59°12' E 005°31'12 0.2
2016-Jun-11 10:32N 59°07' E 005°52'5 4.4
2016-Jun-11 09:31N 59°03' E 005°51'4 3.6
2016-Jun-11 08:31N 59°00' E 005°47'2 2.0
2016-Jun-11 07:26N 58°58' E 005°44'  
Track history (hours):
 
Tides and Currents Weather Stations Pressure Air Temp Water Temp Dewpoint Dewpoint Depression Visibility Wind Speed Wind Dir Waves Ship Positions

Wayana

Last reported at 2016-Jun-17 10:31 UTC. Time now 2016-Jun-24 22:21 UTC.
Position N 59°49' E 005°33'.

Length 14 m.

Type: Sailing vessel. MMSI: 244020670.

Date/timePositionNaut miles runAvg speedWind from/ knotsBaromVisibWave heightAir tempDewpointWater temp
2016-Jun-17 10:31N 59°49' E 005°33'5 5.5
2016-Jun-17 09:33N 59°44' E 005°29'6 6.2
2016-Jun-17 08:32N 59°40' E 005°20'7 0.2
2016-Jun-15 16:22N 59°35' E 005°09'0 0.0
2016-Jun-15 15:31N 59°35' E 005°09'0 0.0
2016-Jun-15 14:31N 59°35' E 005°09'0 0.3
2016-Jun-15 13:33N 59°35' E 005°09'6 5.9
2016-Jun-15 12:33N 59°30' E 005°12'5 5.1
2016-Jun-15 11:33N 59°25' E 005°16'9 0.6
2016-Jun-14 21:06N 59°18' E 005°28'0 0.0
2016-Jun-14 20:30N 59°18' E 005°28'0 0.0
2016-Jun-14 19:33N 59°18' E 005°28'0 0.0
2016-Jun-14 18:33N 59°18' E 005°28'0 0.0
2016-Jun-14 17:32N 59°18' E 005°28'0 0.0
2016-Jun-14 16:23N 59°18' E 005°28'0 0.0
2016-Jun-14 11:20N 59°18' E 005°28'0 0.0
2016-Jun-14 10:28N 59°18' E 005°28'0 0.0
2016-Jun-14 09:31N 59°18' E 005°28'0 0.0
2016-Jun-14 08:34N 59°18' E 005°28'0 0.0
2016-Jun-14 07:33N 59°18' E 005°28'0 0.0
2016-Jun-14 05:33N 59°18' E 005°28'0 0.0
2016-Jun-14 04:33N 59°18' E 005°28'0 0.0
2016-Jun-14 03:30N 59°18' E 005°28'0 0.0
2016-Jun-14 02:33N 59°18' E 005°28'0 0.0
2016-Jun-14 01:30N 59°18' E 005°28'3 0.2
2016-Jun-13 12:11N 59°15' E 005°27'4 5.0
2016-Jun-13 11:30N 59°12' E 005°31'12 0.2
2016-Jun-11 10:32N 59°07' E 005°52'5 4.4
2016-Jun-11 09:31N 59°03' E 005°51'4 3.6
2016-Jun-11 08:31N 59°00' E 005°47'2 2.0
2016-Jun-11 07:26N 58°58' E 005°44'  

Dump ship's entire track history